createdAt,value
2023-04-03T00:04:54.871Z,30.00
2023-04-03T00:10:00.066Z,33.33
2023-04-03T00:15:05.618Z,33.67
2023-04-03T00:20:11.706Z,22.25
2023-04-03T00:25:16.990Z,39.00
2023-04-03T00:30:24.202Z,41.00
2023-04-03T00:35:30.655Z,26.00
2023-04-03T00:40:41.205Z,18.67
2023-04-03T00:45:51.542Z,29.25
2023-04-03T00:50:58.475Z,44.00
2023-04-03T00:56:04.258Z,43.33
2023-04-03T01:01:15.978Z,33.25
2023-04-03T01:06:28.996Z,28.33
2023-04-03T01:11:42.540Z,42.00
2023-04-03T01:22:38.650Z,37.33
2023-04-03T01:27:43.920Z,37.75
2023-04-03T01:32:49.482Z,34.25
2023-04-03T01:37:56.582Z,36.67
2023-04-03T01:43:03.242Z,35.50
2023-04-03T01:48:08.701Z,40.25
2023-04-03T01:53:15.239Z,34.25
2023-04-03T01:58:20.674Z,31.33
2023-04-03T02:03:27.936Z,37.00
2023-04-03T02:08:34.345Z,38.67
2023-04-03T02:13:39.765Z,32.33
2023-04-03T02:18:45.962Z,35.00
2023-04-03T02:23:51.684Z,36.00
2023-04-03T02:28:57.150Z,32.00
2023-04-03T02:34:02.661Z,30.50
2023-04-03T02:39:08.241Z,30.00
2023-04-03T02:44:16.823Z,29.50
2023-04-03T02:49:22.780Z,31.00
2023-04-03T02:54:31.871Z,35.50
2023-04-03T02:59:44.255Z,33.00
2023-04-03T03:04:50.394Z,29.50
2023-04-03T03:09:55.644Z,25.25
2023-04-03T03:15:01.882Z,28.50
2023-04-03T03:20:08.542Z,24.00
2023-04-03T03:25:14.175Z,34.33
2023-04-03T03:35:25.603Z,36.33
2023-04-03T03:45:36.424Z,35.25
2023-04-03T03:50:42.061Z,41.00
2023-04-03T03:55:48.895Z,30.67
2023-04-03T04:00:56.006Z,35.25
2023-04-03T04:06:03.195Z,32.50
2023-04-03T04:11:08.966Z,37.75
2023-04-03T04:16:15.943Z,30.50
2023-04-03T04:21:21.970Z,30.33
2023-04-03T04:26:30.016Z,34.50
2023-04-03T04:31:35.538Z,30.33
2023-04-03T04:36:44.368Z,34.00
2023-04-03T04:41:50.000Z,44.50
2023-04-03T04:46:55.360Z,35.75
2023-04-03T04:52:00.606Z,39.50
2023-04-03T04:57:09.242Z,39.67
2023-04-03T05:02:14.872Z,37.00
2023-04-03T05:07:22.360Z,34.50
2023-04-03T05:12:27.824Z,34.00
2023-04-03T05:17:39.229Z,31.75
2023-04-03T05:22:48.532Z,26.00
2023-04-03T05:27:54.113Z,26.00
2023-04-03T05:32:59.530Z,28.25
2023-04-03T05:38:24.842Z,28.50
2023-04-03T05:43:32.094Z,31.00
2023-04-03T05:48:37.667Z,30.50
2023-04-03T05:53:43.969Z,30.75
2023-04-03T05:58:50.657Z,29.67
2023-04-03T06:03:57.362Z,30.00
2023-04-03T06:09:04.465Z,36.50
2023-04-03T06:14:12.035Z,34.00
2023-04-03T06:19:18.372Z,35.75
2023-04-03T06:24:28.557Z,36.50
2023-04-03T06:29:34.363Z,29.67
2023-04-03T06:34:39.612Z,29.25
2023-04-03T06:39:45.358Z,29.67
2023-04-03T06:44:50.858Z,32.75
2023-04-03T06:49:56.048Z,35.00
2023-04-03T06:55:02.026Z,34.00
2023-04-03T07:00:09.547Z,35.00
2023-04-03T07:05:15.441Z,37.00
2023-04-03T07:10:21.170Z,37.00
2023-04-03T07:15:27.209Z,34.33
2023-04-03T07:20:32.342Z,37.67
2023-04-03T07:25:37.838Z,32.00
2023-04-03T07:30:48.314Z,30.00
2023-04-03T07:35:53.755Z,29.33
2023-04-03T07:40:59.154Z,32.00
2023-04-03T07:46:07.537Z,34.33
2023-04-03T07:51:13.133Z,34.75
2023-04-03T07:56:19.319Z,33.75
2023-04-03T08:01:24.618Z,35.25
2023-04-03T08:06:44.871Z,31.00
2023-04-03T08:11:51.589Z,33.25
2023-04-03T08:16:56.945Z,31.25
2023-04-03T08:22:03.087Z,31.50
2023-04-03T08:27:08.243Z,32.50
2023-04-03T08:32:13.766Z,32.00
2023-04-03T08:37:19.508Z,27.50
2023-04-03T08:47:44.080Z,32.67
2023-04-03T08:52:56.469Z,33.75
2023-04-03T08:58:18.414Z,35.00
2023-04-03T09:03:26.130Z,32.00
2023-04-03T09:08:47.127Z,24.75
2023-04-03T09:14:03.361Z,31.50
2023-04-03T09:19:18.879Z,33.25
2023-04-03T09:24:26.788Z,28.75
2023-04-03T09:29:32.078Z,26.00
2023-04-03T09:34:42.629Z,34.33
2023-04-03T09:39:56.470Z,33.00
2023-04-03T09:45:08.012Z,37.50
2023-04-03T09:50:16.181Z,37.00
2023-04-03T09:55:29.208Z,33.25
2023-04-03T10:00:41.512Z,31.50
2023-04-03T10:05:47.038Z,38.00
2023-04-03T10:11:12.138Z,28.50
2023-04-03T10:16:26.801Z,33.00
2023-04-03T10:21:45.125Z,33.25
2023-04-03T10:27:04.571Z,35.50
2023-04-03T10:32:30.414Z,41.75
2023-04-03T10:37:50.509Z,30.00
2023-04-03T10:43:07.614Z,32.00
2023-04-03T10:48:37.048Z,35.00
2023-04-03T10:54:00.462Z,36.75
2023-04-03T10:59:14.212Z,30.33
2023-04-03T11:04:22.226Z,30.50
2023-04-03T11:09:31.803Z,38.33
2023-04-03T11:14:42.329Z,25.25
2023-04-03T11:20:08.944Z,33.25
2023-04-03T11:25:14.323Z,28.75
2023-04-03T11:35:29.926Z,36.00
2023-04-03T11:40:39.494Z,22.67
2023-04-03T11:46:04.469Z,29.25
2023-04-03T11:51:18.575Z,26.25
2023-04-03T11:56:29.759Z,36.00
2023-04-03T12:01:51.742Z,31.75
2023-04-03T12:07:06.553Z,33.00
2023-04-03T12:12:44.049Z,26.00
2023-04-03T12:17:49.770Z,27.50
2023-04-03T12:23:26.482Z,30.00
2023-04-03T12:28:32.035Z,30.75
2023-04-03T12:33:51.892Z,36.67
2023-04-03T12:38:58.019Z,34.75
2023-04-03T12:44:20.862Z,31.67
2023-04-03T12:49:32.743Z,25.25
2023-04-03T12:54:55.068Z,27.75
2023-04-03T13:00:02.298Z,28.50
2023-04-03T13:05:16.822Z,31.33
2023-04-03T13:10:23.214Z,29.33
2023-04-03T13:15:42.736Z,30.50
2023-04-03T13:20:52.328Z,29.25
2023-04-03T13:26:00.666Z,30.75
2023-04-03T13:31:21.883Z,28.75
2023-04-03T13:36:36.726Z,31.75
2023-04-03T13:41:48.481Z,35.75
2023-04-03T13:52:08.226Z,27.00
2023-04-03T13:57:19.105Z,31.50
2023-04-03T14:02:37.715Z,31.75
2023-04-03T14:07:45.707Z,24.75
2023-04-03T14:12:56.244Z,35.25
2023-04-03T14:18:04.983Z,21.00
2023-04-03T14:23:13.542Z,24.25
2023-04-03T14:28:24.796Z,26.25
2023-04-03T14:33:33.434Z,27.50
2023-04-03T14:38:38.799Z,25.00
2023-04-03T14:43:46.247Z,27.25
2023-04-03T14:53:58.291Z,25.00
2023-04-03T14:59:04.729Z,28.00
2023-04-03T15:04:22.366Z,29.00
2023-04-03T15:09:31.273Z,37.67
2023-04-03T15:14:42.323Z,31.00
2023-04-03T15:19:53.424Z,28.00
2023-04-03T15:24:58.701Z,35.00
2023-04-03T15:30:04.245Z,30.33
2023-04-03T15:35:11.643Z,34.75
2023-04-03T15:40:17.270Z,33.25
2023-04-03T15:45:23.745Z,34.50
2023-04-03T15:50:29.498Z,33.67
2023-04-03T15:55:37.580Z,24.25
2023-04-03T16:00:43.670Z,28.25
2023-04-03T16:05:49.857Z,26.00
2023-04-03T16:10:55.491Z,34.67
2023-04-03T16:16:02.324Z,34.00
2023-04-03T16:21:10.467Z,31.50
2023-04-03T16:26:16.232Z,27.25
2023-04-03T16:31:21.930Z,25.67
2023-04-03T16:36:28.130Z,19.50
2023-04-03T16:41:33.415Z,25.50
2023-04-03T16:46:38.741Z,35.75
2023-04-03T16:51:43.909Z,25.00
2023-04-03T16:56:49.090Z,30.67
2023-04-03T17:01:54.314Z,34.33
2023-04-03T17:06:59.923Z,35.00
2023-04-03T17:12:05.519Z,33.75
2023-04-03T17:17:11.000Z,39.50
2023-04-03T17:22:18.222Z,33.67
2023-04-03T17:27:23.333Z,33.33
2023-04-03T17:32:28.557Z,31.75
2023-04-03T17:37:33.908Z,29.67
2023-04-03T17:42:39.031Z,35.25
2023-04-03T17:47:44.291Z,25.00
2023-04-03T17:52:49.522Z,28.50
2023-04-03T17:57:54.652Z,30.25
2023-04-03T18:03:00.488Z,36.75
2023-04-03T18:08:06.188Z,32.33
2023-04-03T18:13:12.017Z,31.50
2023-04-03T18:18:17.369Z,19.33
2023-04-03T18:23:22.638Z,18.67
2023-04-03T18:28:29.407Z,18.00
2023-04-03T18:33:34.873Z,20.50
2023-04-03T18:38:41.164Z,16.00
2023-04-03T18:43:46.474Z,13.25
2023-04-03T18:48:52.065Z,13.67
2023-04-03T18:53:57.220Z,11.33
2023-04-03T18:59:02.346Z,12.50
2023-04-03T19:04:07.848Z,7.00
2023-04-03T19:09:12.991Z,11.50
2023-04-03T19:14:18.099Z,18.50
2023-04-03T19:19:23.184Z,10.50
2023-04-03T19:24:28.363Z,9.50
2023-04-03T19:29:33.910Z,11.00
2023-04-03T19:34:39.150Z,10.50
2023-04-03T19:39:44.094Z,12.50
2023-04-03T19:44:50.765Z,17.00
2023-04-03T19:49:55.769Z,19.00
2023-04-03T19:55:00.893Z,16.00
2023-04-03T20:00:06.532Z,14.00
2023-04-03T20:05:15.518Z,18.00
2023-04-03T20:10:20.819Z,21.00
2023-04-03T20:15:27.498Z,23.33
2023-04-03T20:20:32.636Z,21.75
2023-04-03T20:25:54.151Z,17.33
2023-04-03T20:31:09.143Z,21.67
2023-04-03T20:36:14.627Z,21.50
2023-04-03T20:41:20.133Z,20.00
2023-04-03T20:46:42.236Z,15.50
2023-04-03T20:51:54.747Z,21.00
2023-04-03T20:57:00.470Z,16.00
2023-04-03T21:02:05.928Z,17.33
2023-04-03T21:07:48.113Z,17.50
2023-04-03T21:13:29.692Z,18.50
2023-04-03T21:18:53.808Z,24.75
2023-04-03T21:23:59.129Z,18.50
2023-04-03T21:29:04.643Z,17.50
2023-04-03T21:34:09.784Z,16.00
2023-04-03T21:39:14.901Z,14.00
2023-04-03T21:44:23.548Z,14.50
2023-04-03T21:49:28.651Z,16.50
2023-04-03T21:54:34.444Z,24.25
2023-04-03T21:59:40.647Z,23.00
2023-04-03T22:04:47.008Z,26.50
2023-04-03T22:09:52.604Z,17.50
2023-04-03T22:14:57.859Z,21.50
2023-04-03T22:20:03.186Z,17.25
2023-04-03T22:25:09.414Z,14.75
2023-04-03T22:30:15.076Z,17.50
2023-04-03T22:35:20.217Z,28.67
2023-04-03T22:45:30.049Z,16.25
2023-04-03T22:50:38.383Z,22.33
2023-04-03T22:55:43.623Z,15.33
2023-04-03T23:00:48.920Z,11.33
2023-04-03T23:05:55.004Z,16.00
2023-04-03T23:11:01.141Z,14.67
2023-04-03T23:16:06.873Z,13.75
2023-04-03T23:21:12.247Z,12.33
2023-04-03T23:26:17.321Z,20.67
2023-04-03T23:31:22.776Z,13.00
2023-04-03T23:36:27.790Z,12.67
2023-04-03T23:41:32.851Z,14.67
2023-04-03T23:46:37.958Z,13.50
2023-04-03T23:51:42.956Z,17.50
2023-04-03T23:56:48.015Z,12.75
